createdAt,value
2018-05-12T00:00:57.415Z,70.40
2018-05-12T00:03:23.722Z,70.60
2018-05-12T00:05:50.065Z,70.40
2018-05-12T00:08:16.297Z,70.37
2018-05-12T00:10:42.589Z,70.95
2018-05-12T00:13:08.915Z,71.09
2018-05-12T00:15:35.977Z,71.05
2018-05-12T00:18:02.305Z,70.80
2018-05-12T00:20:28.664Z,70.78
2018-05-12T00:22:55.651Z,72.18
2018-05-12T00:25:22.710Z,72.70
2018-05-12T00:27:50.560Z,72.61
2018-05-12T00:30:16.837Z,72.97
2018-05-12T00:32:43.126Z,72.98
2018-05-12T00:35:09.878Z,73.13
2018-05-12T00:37:37.654Z,73.11
2018-05-12T00:40:04.698Z,72.70
2018-05-12T00:42:32.143Z,72.62
2018-05-12T00:44:59.523Z,72.90
2018-05-12T00:47:26.873Z,73.27
2018-05-12T00:49:53.189Z,73.46
2018-05-12T00:52:20.220Z,73.79
2018-05-12T00:54:46.496Z,73.83
2018-05-12T00:57:12.835Z,73.82
2018-05-12T00:59:39.121Z,73.81
2018-05-12T01:02:06.181Z,73.99
2018-05-12T01:04:33.255Z,74.03
2018-05-12T01:06:59.545Z,74.80
2018-05-12T01:09:25.987Z,75.04
2018-05-12T01:11:53.029Z,74.56
2018-05-12T01:14:19.664Z,74.71
2018-05-12T01:16:46.061Z,74.80
2018-05-12T01:19:12.391Z,74.87
2018-05-12T01:21:38.725Z,74.74
2018-05-12T01:24:04.999Z,74.82
2018-05-12T01:26:32.435Z,74.89
2018-05-12T01:28:58.709Z,74.75
2018-05-12T01:31:25.035Z,75.15
2018-05-12T01:33:52.141Z,75.19
2018-05-12T01:36:18.484Z,75.46
2018-05-12T01:38:44.746Z,75.47
2018-05-12T01:41:11.070Z,75.53
2018-05-12T01:43:38.462Z,75.50
2018-05-12T01:46:04.753Z,75.64
2018-05-12T01:48:31.164Z,75.55
2018-05-12T01:50:57.463Z,75.98
2018-05-12T01:53:23.755Z,75.96
2018-05-12T01:55:50.076Z,76.13
2018-05-12T01:58:17.144Z,76.58
2018-05-12T02:00:43.745Z,76.13
2018-05-12T02:03:09.999Z,76.36
2018-05-12T02:05:37.011Z,76.41
2018-05-12T02:08:03.379Z,76.02
2018-05-12T02:10:30.427Z,75.90
2018-05-12T02:12:57.465Z,76.05
2018-05-12T02:15:24.521Z,76.14
2018-05-12T02:17:51.606Z,76.08
2018-05-12T02:20:17.934Z,76.07
2018-05-12T02:22:44.215Z,76.31
2018-05-12T02:25:10.487Z,76.13
2018-05-12T02:27:36.815Z,76.00
2018-05-12T02:30:03.119Z,76.09
2018-05-12T02:32:30.120Z,76.24
2018-05-12T02:34:56.403Z,76.61
2018-05-12T02:37:22.711Z,76.20
2018-05-12T02:39:49.728Z,75.76
2018-05-12T02:42:15.978Z,75.38
2018-05-12T02:44:43.759Z,74.41
2018-05-12T02:47:10.795Z,73.72
2018-05-12T02:49:38.581Z,73.39
2018-05-12T02:52:05.609Z,73.34
2018-05-12T02:54:32.664Z,73.58
2018-05-12T02:56:59.710Z,74.14
2018-05-12T02:59:26.137Z,74.39
2018-05-12T03:01:53.188Z,74.31
2018-05-12T03:04:19.470Z,73.99
2018-05-12T03:06:45.815Z,74.40
2018-05-12T03:09:12.142Z,74.68
2018-05-12T03:11:38.423Z,74.44
2018-05-12T03:14:05.488Z,74.48
2018-05-12T03:16:31.765Z,74.80
2018-05-12T03:19:04.904Z,74.92
2018-05-12T03:21:31.209Z,74.93
2018-05-12T03:23:57.544Z,75.23
2018-05-12T03:26:24.174Z,74.97
2018-05-12T03:28:50.441Z,74.64
2018-05-12T03:31:16.697Z,74.12
2018-05-12T03:33:42.974Z,74.70
2018-05-12T03:36:09.270Z,74.52
2018-05-12T03:38:35.564Z,74.40
2018-05-12T03:41:01.857Z,74.18
2018-05-12T03:43:28.516Z,73.77
2018-05-12T03:45:54.832Z,73.85
2018-05-12T03:48:21.142Z,74.22
2018-05-12T03:50:47.515Z,74.27
2018-05-12T03:53:14.562Z,73.75
2018-05-12T03:55:41.894Z,73.77
2018-05-12T03:58:08.215Z,74.18
2018-05-12T04:00:34.519Z,74.16
2018-05-12T04:03:00.982Z,73.94
2018-05-12T04:05:46.156Z,73.68
2018-05-12T04:08:32.514Z,73.74
2018-05-12T04:11:19.926Z,73.39
2018-05-12T04:13:46.214Z,73.07
2018-05-12T04:16:12.497Z,72.64
2018-05-12T04:18:38.731Z,72.35
2018-05-12T04:21:05.074Z,72.25
2018-05-12T04:23:32.281Z,71.86
2018-05-12T04:25:58.895Z,70.79
2018-05-12T04:28:25.191Z,70.28
2018-05-12T04:30:51.515Z,69.87
2018-05-12T04:33:17.791Z,69.93
2018-05-12T04:35:44.620Z,70.19
2018-05-12T04:38:10.978Z,69.65
2018-05-12T04:40:38.409Z,69.13
2018-05-12T04:43:04.647Z,68.49
2018-05-12T04:45:30.943Z,67.84
2018-05-12T04:47:57.257Z,66.96
2018-05-12T04:50:23.536Z,66.07
2018-05-12T04:52:49.844Z,65.12
2018-05-12T04:55:16.122Z,65.53
2018-05-12T04:57:43.135Z,65.42
2018-05-12T05:00:09.421Z,64.89
2018-05-12T05:02:35.730Z,64.47
2018-05-12T05:05:02.777Z,63.42
2018-05-12T05:07:29.794Z,63.17
2018-05-12T05:09:56.179Z,63.01
2018-05-12T05:12:22.480Z,63.36
2018-05-12T05:14:49.506Z,63.42
2018-05-12T05:17:15.785Z,62.87
2018-05-12T05:19:42.070Z,61.77
2018-05-12T05:22:08.720Z,62.26
2018-05-12T05:24:35.769Z,61.62
2018-05-12T05:27:02.804Z,61.28
2018-05-12T05:29:29.120Z,61.46
2018-05-12T05:31:55.423Z,61.42
2018-05-12T05:34:21.686Z,61.03
2018-05-12T05:36:48.337Z,61.01
2018-05-12T05:39:14.645Z,61.10
2018-05-12T05:41:41.031Z,61.27
2018-05-12T05:44:13.552Z,61.45
2018-05-12T05:46:39.870Z,60.84
2018-05-12T05:49:06.182Z,60.64
2018-05-12T05:51:32.665Z,60.18
2018-05-12T05:53:58.947Z,60.22
2018-05-12T05:56:25.224Z,61.40
2018-05-12T05:58:51.579Z,60.78
2018-05-12T06:01:19.027Z,61.72
2018-05-12T06:03:46.334Z,60.64
2018-05-12T06:06:12.579Z,60.57
2018-05-12T06:08:39.222Z,59.82
2018-05-12T06:11:05.553Z,59.63
2018-05-12T06:13:31.849Z,58.73
2018-05-12T06:15:58.141Z,58.22
2018-05-12T06:18:25.941Z,58.42
2018-05-12T06:20:52.266Z,58.08
2018-05-12T06:23:19.650Z,58.04
2018-05-12T06:25:46.822Z,57.07
2018-05-12T06:28:13.117Z,56.69
2018-05-12T06:30:39.377Z,57.07
2018-05-12T06:33:06.132Z,56.26
2018-05-12T06:35:32.415Z,55.75
2018-05-12T06:37:58.716Z,55.66
2018-05-12T06:40:26.894Z,55.66
2018-05-12T06:42:53.635Z,55.80
2018-05-12T06:45:20.735Z,56.05
2018-05-12T06:47:47.157Z,55.92
2018-05-12T06:50:13.446Z,55.07
2018-05-12T06:52:40.532Z,54.80
2018-05-12T06:55:06.794Z,54.12
2018-05-12T06:57:34.176Z,53.03
2018-05-12T07:00:00.465Z,51.12
2018-05-12T07:02:26.791Z,50.54
2018-05-12T07:04:55.155Z,49.09
2018-05-12T07:07:23.649Z,48.77
2018-05-12T07:09:51.037Z,49.16
2018-05-12T07:12:17.419Z,49.51
2018-05-12T07:14:43.662Z,49.28
2018-05-12T07:17:11.006Z,49.78
2018-05-12T07:19:37.268Z,49.94
2018-05-12T07:22:03.599Z,50.25
2018-05-12T07:24:29.992Z,49.49
2018-05-12T07:26:56.277Z,49.07
2018-05-12T07:29:22.937Z,49.04
2018-05-12T07:31:49.937Z,48.98
2018-05-12T07:34:16.253Z,49.21
2018-05-12T07:36:42.583Z,48.86
2018-05-12T07:39:08.956Z,48.83
2018-05-12T07:41:36.198Z,49.92
2018-05-12T07:44:02.496Z,50.78
2018-05-12T07:46:28.857Z,49.82
2018-05-12T07:48:55.205Z,49.71
2018-05-12T07:51:21.551Z,49.52
2018-05-12T07:53:47.911Z,49.50
2018-05-12T07:56:14.206Z,49.26
2018-05-12T07:58:41.677Z,51.28
2018-05-12T08:01:08.798Z,52.52
2018-05-12T08:03:35.107Z,51.86
2018-05-12T08:06:01.383Z,50.98
2018-05-12T08:08:27.657Z,50.56
2018-05-12T08:10:57.999Z,49.68
2018-05-12T08:13:24.325Z,50.46
2018-05-12T08:15:50.617Z,50.77
2018-05-12T08:18:17.704Z,50.02
2018-05-12T08:20:44.024Z,50.13
2018-05-12T08:23:10.379Z,51.02
2018-05-12T08:25:37.720Z,51.42
2018-05-12T08:28:04.023Z,51.78
2018-05-12T08:30:30.321Z,51.10
2018-05-12T08:32:56.627Z,49.24
2018-05-12T08:35:22.931Z,48.99
2018-05-12T08:37:49.224Z,47.80
2018-05-12T08:40:16.697Z,48.23
2018-05-12T08:42:43.735Z,49.99
2018-05-12T08:45:10.830Z,49.34
2018-05-12T08:47:37.161Z,48.82
2018-05-12T08:50:03.523Z,48.47
2018-05-12T08:52:30.887Z,47.15
2018-05-12T08:54:57.942Z,46.95
2018-05-12T08:57:24.242Z,47.18
2018-05-12T08:59:50.575Z,46.47
2018-05-12T09:02:18.917Z,46.13
2018-05-12T09:04:45.305Z,46.72
2018-05-12T09:07:11.672Z,46.89
2018-05-12T09:09:37.871Z,46.60
2018-05-12T09:12:04.155Z,46.60
2018-05-12T09:14:30.465Z,46.87
2018-05-12T09:16:56.852Z,46.41
2018-05-12T09:19:23.157Z,45.85
2018-05-12T09:21:49.458Z,46.21
2018-05-12T09:24:15.788Z,45.91
2018-05-12T09:26:42.088Z,44.32
2018-05-12T09:29:08.555Z,44.48
2018-05-12T09:31:34.854Z,45.26
2018-05-12T09:34:01.910Z,44.71
2018-05-12T09:36:28.970Z,44.77
2018-05-12T09:38:55.281Z,44.52
2018-05-12T09:41:21.916Z,44.38
2018-05-12T09:43:48.984Z,43.75
2018-05-12T09:46:16.012Z,43.37
2018-05-12T09:48:42.343Z,42.98
2018-05-12T09:51:08.622Z,42.91
2018-05-12T09:53:35.309Z,43.14
2018-05-12T09:56:01.622Z,43.55
2018-05-12T09:58:27.901Z,42.72
2018-05-12T10:00:55.345Z,43.54
2018-05-12T10:03:22.434Z,43.45
2018-05-12T10:05:48.703Z,42.40
2018-05-12T10:08:15.754Z,41.40
2018-05-12T10:10:42.043Z,41.19
2018-05-12T10:13:08.343Z,41.29
2018-05-12T10:15:34.663Z,40.84
2018-05-12T10:18:01.760Z,39.42
2018-05-12T10:20:28.094Z,38.41
2018-05-12T10:22:54.374Z,39.35
2018-05-12T10:25:21.432Z,40.79
2018-05-12T10:27:47.734Z,40.68
2018-05-12T10:30:13.993Z,40.35
2018-05-12T10:32:41.032Z,40.84
2018-05-12T10:35:08.111Z,40.11
2018-05-12T10:37:34.417Z,39.18
2018-05-12T10:40:01.499Z,39.64
2018-05-12T10:42:28.149Z,38.39
2018-05-12T10:44:54.487Z,37.97
2018-05-12T10:47:21.454Z,38.84
2018-05-12T10:49:47.746Z,38.07
2018-05-12T10:52:14.061Z,38.12
2018-05-12T10:54:40.363Z,38.29
2018-05-12T10:57:07.406Z,37.55
2018-05-12T10:59:33.725Z,37.57
2018-05-12T11:02:00.919Z,36.29
2018-05-12T11:04:27.187Z,35.68
2018-05-12T11:06:53.494Z,36.17
2018-05-12T11:09:19.814Z,36.76
2018-05-12T11:11:46.125Z,37.59
2018-05-12T11:14:13.244Z,35.93
2018-05-12T11:16:39.557Z,35.92
2018-05-12T11:19:05.859Z,35.63
2018-05-12T11:21:32.222Z,35.87
2018-05-12T11:23:58.560Z,35.25
2018-05-12T11:26:24.886Z,35.01
2018-05-12T11:28:51.223Z,34.99
2018-05-12T11:31:17.552Z,34.66
2018-05-12T11:33:43.941Z,33.82
2018-05-12T11:36:10.231Z,32.43
2018-05-12T11:38:36.584Z,32.60
2018-05-12T11:41:03.703Z,33.16
2018-05-12T11:43:30.038Z,30.99
2018-05-12T11:45:56.356Z,29.66
2018-05-12T11:48:22.654Z,28.26
2018-05-12T11:50:48.969Z,26.03
2018-05-12T11:53:16.043Z,23.67
2018-05-12T11:55:42.355Z,22.47
2018-05-12T11:58:08.632Z,19.98
2018-05-12T12:00:34.984Z,17.98
2018-05-12T12:03:01.406Z,15.42
2018-05-12T12:05:27.729Z,14.86
2018-05-12T12:07:54.418Z,15.53
2018-05-12T12:10:20.837Z,16.86
2018-05-12T12:12:48.097Z,15.56
2018-05-12T12:15:15.463Z,13.11
2018-05-12T12:17:41.948Z,12.21
2018-05-12T12:20:08.710Z,11.48
2018-05-12T12:22:35.052Z,10.62
2018-05-12T12:25:02.078Z,11.22
2018-05-12T12:27:28.413Z,10.09
2018-05-12T12:29:54.727Z,9.59
2018-05-12T12:32:20.995Z,10.06
2018-05-12T12:34:48.037Z,9.23
2018-05-12T12:37:14.333Z,9.34
2018-05-12T12:39:40.602Z,8.53
2018-05-12T12:42:06.882Z,8.91
2018-05-12T12:44:33.170Z,10.68
2018-05-12T12:47:00.218Z,12.44
2018-05-12T12:49:26.481Z,11.06
2018-05-12T12:51:53.558Z,10.29
2018-05-12T12:54:19.874Z,9.72
2018-05-12T12:56:46.191Z,9.58
2018-05-12T12:59:12.530Z,9.64
2018-05-12T13:01:38.854Z,10.44
2018-05-12T13:04:05.196Z,10.15
2018-05-12T13:06:31.533Z,8.87
2018-05-12T13:08:57.838Z,7.12
2018-05-12T13:11:24.292Z,6.80
2018-05-12T13:13:50.593Z,7.18
2018-05-12T13:16:17.804Z,8.31
2018-05-12T13:18:44.088Z,7.23
2018-05-12T13:21:10.430Z,7.56
2018-05-12T13:23:36.724Z,7.83
2018-05-12T13:26:03.826Z,7.90
2018-05-12T13:28:30.129Z,8.34
2018-05-12T13:30:56.420Z,7.83
2018-05-12T13:33:23.740Z,7.37
2018-05-12T13:35:50.047Z,6.75
2018-05-12T13:38:16.324Z,8.05
2018-05-12T13:40:42.639Z,7.79
2018-05-12T13:43:08.967Z,8.08
2018-05-12T13:45:35.323Z,7.66
2018-05-12T13:48:01.581Z,6.90
2018-05-12T13:50:27.889Z,6.91
2018-05-12T13:52:54.981Z,6.43
2018-05-12T13:55:21.250Z,6.69
2018-05-12T13:57:47.638Z,7.05
2018-05-12T14:00:13.897Z,6.67
2018-05-12T14:02:40.215Z,7.33
2018-05-12T14:05:06.495Z,8.26
2018-05-12T14:07:33.600Z,7.31
2018-05-12T14:09:59.906Z,6.55
2018-05-12T14:12:26.249Z,6.62
2018-05-12T14:14:52.972Z,6.16
2018-05-12T14:17:19.270Z,5.72
2018-05-12T14:19:46.272Z,6.24
2018-05-12T14:22:12.552Z,6.95
2018-05-12T14:24:39.571Z,7.18
2018-05-12T14:27:05.857Z,6.66
2018-05-12T14:29:32.238Z,6.70
2018-05-12T14:31:59.399Z,7.34
2018-05-12T14:34:25.694Z,7.17
2018-05-12T14:36:51.987Z,7.19
2018-05-12T14:39:18.982Z,7.45
2018-05-12T14:41:45.279Z,8.20
2018-05-12T14:44:11.565Z,8.67
2018-05-12T14:46:37.901Z,9.41
2018-05-12T14:49:04.252Z,9.75
2018-05-12T14:51:31.307Z,9.56
2018-05-12T14:53:58.411Z,9.61
2018-05-12T14:56:24.744Z,9.03
2018-05-12T14:58:51.040Z,9.21
2018-05-12T15:01:17.360Z,8.46
2018-05-12T15:03:44.591Z,7.91
2018-05-12T15:06:11.673Z,7.85
2018-05-12T15:08:38.079Z,8.13
2018-05-12T15:11:05.206Z,9.58
2018-05-12T15:13:31.541Z,8.64
2018-05-12T15:15:57.837Z,8.83
2018-05-12T15:18:24.148Z,8.88
2018-05-12T15:20:50.471Z,8.58
2018-05-12T15:23:16.743Z,7.75
2018-05-12T15:25:43.050Z,7.36
2018-05-12T15:28:09.334Z,7.30
2018-05-12T15:30:36.466Z,7.71
2018-05-12T15:33:03.500Z,7.90
2018-05-12T15:35:29.867Z,8.46
2018-05-12T15:37:56.908Z,9.26
2018-05-12T15:40:23.224Z,8.62
2018-05-12T15:42:49.498Z,7.59
2018-05-12T15:45:15.797Z,8.34
2018-05-12T15:47:42.059Z,9.37
2018-05-12T15:50:08.371Z,8.87
2018-05-12T15:52:35.441Z,9.27
2018-05-12T15:55:01.868Z,8.89
2018-05-12T15:57:28.178Z,9.50
2018-05-12T15:59:54.443Z,9.15
2018-05-12T16:02:20.772Z,9.64
2018-05-12T16:04:47.114Z,9.75
2018-05-12T16:07:13.451Z,9.62
2018-05-12T16:09:39.728Z,9.59
2018-05-12T16:12:06.819Z,9.73
2018-05-12T16:14:33.122Z,9.21
2018-05-12T16:17:00.146Z,9.03
2018-05-12T16:19:26.903Z,9.37
2018-05-12T16:21:53.911Z,9.32
2018-05-12T16:24:32.889Z,9.90
2018-05-12T16:26:59.920Z,9.67
2018-05-12T16:29:27.979Z,9.84
2018-05-12T16:31:55.250Z,10.70
2018-05-12T16:34:22.296Z,10.53
2018-05-12T16:36:49.410Z,11.15
2018-05-12T16:39:16.482Z,11.68
2018-05-12T16:41:43.958Z,11.54
2018-05-12T16:44:11.045Z,12.12
2018-05-12T16:46:37.337Z,14.00
2018-05-12T16:49:04.332Z,17.78
2018-05-12T16:51:30.614Z,20.97
2018-05-12T16:53:57.643Z,24.32
2018-05-12T16:56:23.921Z,25.68
2018-05-12T16:58:50.210Z,26.28
2018-05-12T17:01:16.596Z,26.82
2018-05-12T17:03:42.937Z,27.88
2018-05-12T17:06:09.198Z,28.79
2018-05-12T17:08:35.482Z,29.46
2018-05-12T17:11:01.764Z,30.20
2018-05-12T17:13:28.037Z,31.04
2018-05-12T17:15:54.624Z,31.69
2018-05-12T17:18:20.918Z,31.75
2018-05-12T17:20:47.172Z,31.08
2018-05-12T17:23:13.511Z,31.73
2018-05-12T17:25:39.777Z,32.31
2018-05-12T17:28:06.091Z,32.83
2018-05-12T17:30:33.106Z,33.00
2018-05-12T17:32:59.367Z,33.64
2018-05-12T17:35:25.718Z,33.46
2018-05-12T17:37:52.056Z,33.94
2018-05-12T17:40:19.065Z,34.54
2018-05-12T17:42:45.386Z,35.01
2018-05-12T17:45:11.698Z,35.30
2018-05-12T17:47:37.979Z,34.95
2018-05-12T17:50:05.054Z,35.75
2018-05-12T17:52:31.351Z,36.04
2018-05-12T17:54:58.357Z,35.56
2018-05-12T17:57:24.650Z,35.46
2018-05-12T17:59:50.971Z,36.18
2018-05-12T18:02:18.153Z,36.79
2018-05-12T18:04:44.444Z,37.31
2018-05-12T18:07:11.401Z,37.36
2018-05-12T18:09:38.443Z,37.62
2018-05-12T18:12:05.407Z,37.02
2018-05-12T18:14:31.677Z,37.50
2018-05-12T18:16:57.965Z,37.52
2018-05-12T18:19:24.248Z,38.28
2018-05-12T18:21:50.553Z,38.63
2018-05-12T18:24:16.897Z,38.26
2018-05-12T18:26:43.198Z,38.39
2018-05-12T18:29:09.543Z,38.83
2018-05-12T18:31:35.799Z,39.16
2018-05-12T18:34:02.076Z,39.10
2018-05-12T18:36:28.374Z,39.24
2018-05-12T18:38:54.666Z,39.09
2018-05-12T18:41:20.907Z,40.14
2018-05-12T18:43:47.165Z,39.84
2018-05-12T18:46:13.448Z,39.64
2018-05-12T18:48:39.747Z,39.64
2018-05-12T18:51:06.774Z,39.46
2018-05-12T18:53:33.129Z,39.93
2018-05-12T18:55:59.415Z,40.94
2018-05-12T18:58:25.701Z,40.38
2018-05-12T19:00:52.024Z,40.99
2018-05-12T19:03:18.312Z,42.60
2018-05-12T19:05:44.523Z,41.24
2018-05-12T19:08:11.832Z,41.69
2018-05-12T19:10:38.133Z,41.94
2018-05-12T19:13:04.437Z,41.18
2018-05-12T19:15:30.759Z,41.59
2018-05-12T19:17:57.005Z,41.61
2018-05-12T19:20:23.318Z,41.91
2018-05-12T19:22:49.639Z,42.21
2018-05-12T19:25:15.914Z,42.83
2018-05-12T19:27:42.944Z,42.76
2018-05-12T19:30:09.249Z,42.73
2018-05-12T19:32:35.525Z,43.19
2018-05-12T19:35:01.828Z,43.39
2018-05-12T19:37:28.101Z,43.70
2018-05-12T19:39:55.097Z,43.78
2018-05-12T19:42:21.383Z,44.14
2018-05-12T19:44:47.710Z,44.11
2018-05-12T19:47:14.729Z,44.66
2018-05-12T19:49:40.989Z,44.89
2018-05-12T19:52:07.245Z,45.28
2018-05-12T19:54:33.523Z,46.30
2018-05-12T19:56:59.863Z,46.48
2018-05-12T19:59:26.116Z,46.35
2018-05-12T20:01:53.165Z,46.74
2018-05-12T20:04:20.180Z,46.84
2018-05-12T20:06:48.053Z,46.29
2018-05-12T20:09:14.310Z,46.45
2018-05-12T20:11:41.392Z,46.21
2018-05-12T20:14:07.726Z,46.23
2018-05-12T20:16:34.024Z,46.69
2018-05-12T20:19:01.083Z,46.26
2018-05-12T20:21:27.363Z,46.77
2018-05-12T20:23:53.641Z,46.32
2018-05-12T20:26:19.982Z,47.25
2018-05-12T20:28:46.248Z,48.06
2018-05-12T20:31:12.535Z,48.66
2018-05-12T20:33:38.777Z,49.12
2018-05-12T20:36:05.063Z,50.23
2018-05-12T20:38:32.079Z,50.74
2018-05-12T20:40:58.367Z,51.02
2018-05-12T20:43:24.645Z,51.23
2018-05-12T20:45:50.958Z,51.91
2018-05-12T20:48:17.222Z,52.30
2018-05-12T20:50:43.518Z,52.22
2018-05-12T20:53:09.884Z,52.87
2018-05-12T20:55:36.314Z,52.93
2018-05-12T20:58:02.610Z,52.89
2018-05-12T21:00:28.908Z,53.11
2018-05-12T21:02:55.925Z,53.69
2018-05-12T21:05:22.200Z,53.38
2018-05-12T21:07:48.489Z,54.00
2018-05-12T21:10:14.779Z,54.07
2018-05-12T21:12:41.070Z,54.40
2018-05-12T21:15:08.072Z,54.25
2018-05-12T21:17:34.388Z,54.70
2018-05-12T21:20:00.618Z,55.04
2018-05-12T21:22:26.860Z,55.74
2018-05-12T21:24:53.126Z,56.27
2018-05-12T21:27:20.154Z,56.34
2018-05-12T21:29:46.443Z,56.25
2018-05-12T21:32:12.723Z,56.58
2018-05-12T21:34:39.414Z,56.76
2018-05-12T21:37:05.722Z,57.01
2018-05-12T21:39:32.015Z,57.09
2018-05-12T21:41:58.297Z,57.22
2018-05-12T21:44:24.617Z,57.31
2018-05-12T21:46:50.895Z,57.06
2018-05-12T21:49:17.148Z,57.29
2018-05-12T21:51:44.133Z,57.98
2018-05-12T21:54:10.407Z,58.42
2018-05-12T21:56:36.679Z,58.64
2018-05-12T21:59:03.118Z,58.27
2018-05-12T22:01:29.317Z,58.49
2018-05-12T22:03:55.605Z,58.82
2018-05-12T22:06:21.891Z,59.12
2018-05-12T22:08:48.922Z,59.06
2018-05-12T22:11:15.215Z,59.14
2018-05-12T22:13:41.530Z,59.23
2018-05-12T22:16:07.818Z,59.32
2018-05-12T22:18:34.912Z,59.48
2018-05-12T22:21:01.896Z,59.72
2018-05-12T22:23:28.912Z,59.41
2018-05-12T22:25:55.202Z,60.51
2018-05-12T22:28:22.281Z,61.17
2018-05-12T22:30:48.546Z,60.98
2018-05-12T22:33:14.829Z,61.65
2018-05-12T22:35:41.082Z,62.02
2018-05-12T22:38:07.386Z,61.67
2018-05-12T22:40:33.659Z,61.15
2018-05-12T22:42:59.928Z,61.18
2018-05-12T22:47:53.866Z,61.19
2018-05-12T22:50:20.166Z,61.13
2018-05-12T22:52:46.504Z,61.19
2018-05-12T22:55:12.786Z,61.20
2018-05-12T22:57:39.068Z,61.25
2018-05-12T23:00:05.361Z,61.31
2018-05-12T23:02:31.627Z,62.13
2018-05-12T23:04:57.924Z,61.93
2018-05-12T23:07:24.919Z,62.16
2018-05-12T23:09:51.170Z,62.25
2018-05-12T23:12:17.428Z,62.17
2018-05-12T23:14:43.680Z,62.35
2018-05-12T23:17:10.666Z,62.23
2018-05-12T23:19:36.940Z,62.68
2018-05-12T23:22:03.945Z,62.53
2018-05-12T23:24:30.230Z,62.65
2018-05-12T23:26:57.190Z,63.38
2018-05-12T23:29:23.446Z,63.71
2018-05-12T23:31:49.732Z,63.41
2018-05-12T23:34:16.729Z,63.36
2018-05-12T23:36:42.997Z,62.94
2018-05-12T23:39:10.021Z,63.24
2018-05-12T23:41:36.293Z,63.38
2018-05-12T23:44:02.557Z,63.21
2018-05-12T23:46:28.806Z,63.46
2018-05-12T23:48:55.074Z,63.48
2018-05-12T23:51:22.165Z,63.47
2018-05-12T23:53:48.425Z,64.24
2018-05-12T23:56:15.437Z,64.82
2018-05-12T23:58:41.756Z,64.89
